RYR1FR EBBR-LEBL
Flight info
| Callsign | RYR1FR |
|---|---|
| Flight time | 1h 35m |
| Altitude | 33000 |
| Route | CIV N872 LESDO DCT KOVIN DCT DUCRA/N0457F390 UM728 RESMI UN857 DISAK DCT DIRMO DCT VALKU DCT ATSUP DCT MINSO DCT DEGOL DCT PPG DCT ALBER |
| Aircraft | B38M/M-SDE1FGHILORVWXY/HB1 |
Departure
| Time | 2026-05-05 15:36 |
|---|---|
| Airport | Brussels Airport (EBBR) |
Arrival
| Time | 2026-05-05 17:11 |
|---|---|
| Airport | Josep Tarradellas Barcelona-El Prat Airport (LEBL) |
| Time | Latitude | Longitude | Altitude | Speed | Heading |
|---|---|---|---|---|---|
| 2026-05-05 15:10 | 50.90233 | 4.47950 | 139 ft | 0 kts | 156° |
| 2026-05-05 15:21 | 50.90240 | 4.47945 | 140 ft | 2 kts | 154° |
| 2026-05-05 15:21 | 50.90255 | 4.47934 | 140 ft | 2 kts | 154° |
| 2026-05-05 15:21 | 50.90270 | 4.47922 | 141 ft | 2 kts | 151° |
| 2026-05-05 15:21 | 50.90284 | 4.47909 | 141 ft | 2 kts | 144° |
| 2026-05-05 15:22 | 50.90296 | 4.47891 | 141 ft | 2 kts | 117° |
| 2026-05-05 15:22 | 50.90298 | 4.47868 | 141 ft | 2 kts | 68° |
| 2026-05-05 15:22 | 50.90296 | 4.47861 | 140 ft | 0 kts | 65° |
| 2026-05-05 15:24 | 50.90297 | 4.47864 | 140 ft | 1 kts | 65° |
| 2026-05-05 15:25 | 50.90299 | 4.47869 | 141 ft | 0 kts | 65° |
| 2026-05-05 15:26 | 50.90299 | 4.47871 | 141 ft | 1 kts | 65° |
| 2026-05-05 15:27 | 50.90312 | 4.47916 | 141 ft | 8 kts | 65° |
| 2026-05-05 15:27 | 50.90347 | 4.48037 | 141 ft | 16 kts | 65° |
| 2026-05-05 15:27 | 50.90396 | 4.48205 | 141 ft | 9 kts | 65° |
| 2026-05-05 15:27 | 50.90401 | 4.48223 | 141 ft | 3 kts | 65° |
| 2026-05-05 15:28 | 50.90422 | 4.48294 | 140 ft | 12 kts | 65° |
| 2026-05-05 15:28 | 50.90469 | 4.48459 | 137 ft | 20 kts | 66° |
| 2026-05-05 15:28 | 50.90539 | 4.48594 | 136 ft | 15 kts | 9° |
| 2026-05-05 15:28 | 50.90601 | 4.48645 | 133 ft | 17 kts | 58° |
| 2026-05-05 15:29 | 50.90656 | 4.48836 | 131 ft | 20 kts | 65° |
| 2026-05-05 15:29 | 50.90718 | 4.49050 | 126 ft | 22 kts | 65° |
| 2026-05-05 15:29 | 50.90784 | 4.49277 | 132 ft | 23 kts | 65° |
| 2026-05-05 15:29 | 50.90849 | 4.49509 | 129 ft | 14 kts | 65° |
| 2026-05-05 15:30 | 50.90818 | 4.49683 | 132 ft | 14 kts | 130° |
| 2026-05-05 15:30 | 50.90765 | 4.49716 | 134 ft | 13 kts | 185° |
| 2026-05-05 15:30 | 50.90672 | 4.49682 | 133 ft | 16 kts | 194° |
| 2026-05-05 15:30 | 50.90552 | 4.49633 | 135 ft | 19 kts | 194° |
| 2026-05-05 15:31 | 50.90416 | 4.49577 | 137 ft | 22 kts | 194° |
| 2026-05-05 15:31 | 50.90271 | 4.49516 | 138 ft | 21 kts | 195° |
| 2026-05-05 15:31 | 50.90131 | 4.49459 | 139 ft | 20 kts | 194° |
| 2026-05-05 15:31 | 50.90004 | 4.49409 | 144 ft | 17 kts | 194° |
| 2026-05-05 15:32 | 50.89869 | 4.49354 | 144 ft | 23 kts | 194° |
| 2026-05-05 15:32 | 50.89713 | 4.49290 | 145 ft | 24 kts | 194° |
| 2026-05-05 15:32 | 50.89591 | 4.49210 | 144 ft | 15 kts | 212° |
| 2026-05-05 15:32 | 50.89487 | 4.49157 | 144 ft | 17 kts | 194° |
| 2026-05-05 15:33 | 50.89359 | 4.49105 | 142 ft | 20 kts | 194° |
| 2026-05-05 15:33 | 50.89296 | 4.49079 | 141 ft | 0 kts | 194° |
| 2026-05-05 15:33 | 50.89288 | 4.49076 | 141 ft | 3 kts | 194° |
| 2026-05-05 15:34 | 50.89245 | 4.49059 | 140 ft | 11 kts | 194° |
| 2026-05-05 15:34 | 50.89162 | 4.49059 | 141 ft | 11 kts | 137° |
| 2026-05-05 15:34 | 50.89156 | 4.49124 | 142 ft | 0 kts | 73° |
| 2026-05-05 15:35 | 50.89162 | 4.49154 | 142 ft | 15 kts | 71° |
| 2026-05-05 15:35 | 50.89294 | 4.49725 | 148 ft | 94 kts | 70° |
| 2026-05-05 15:36 | 50.89596 | 4.51028 | 222 ft | 150 kts | 70° |
| 2026-05-05 15:36 | 50.89989 | 4.52614 | 885 ft | 156 kts | 67° |
| 2026-05-05 15:36 | 50.90455 | 4.54171 | 1509 ft | 161 kts | 64° |
| 2026-05-05 15:36 | 50.90965 | 4.55802 | 1989 ft | 170 kts | 63° |
| 2026-05-05 15:37 | 50.91536 | 4.57554 | 2242 ft | 190 kts | 62° |
| 2026-05-05 15:37 | 50.92162 | 4.59463 | 2739 ft | 201 kts | 62° |
| 2026-05-05 15:37 | 50.92818 | 4.61467 | 3200 ft | 215 kts | 62° |
| 2026-05-05 15:37 | 50.93527 | 4.63642 | 3649 ft | 230 kts | 64° |
| 2026-05-05 15:38 | 50.94062 | 4.66125 | 4098 ft | 247 kts | 73° |
| 2026-05-05 15:38 | 50.94594 | 4.68805 | 4568 ft | 262 kts | 72° |
| 2026-05-05 15:38 | 50.95156 | 4.71603 | 5221 ft | 269 kts | 72° |
| 2026-05-05 15:38 | 50.95628 | 4.74497 | 5924 ft | 273 kts | 87° |
| 2026-05-05 15:39 | 50.95301 | 4.77455 | 6659 ft | 276 kts | 115° |
| 2026-05-05 15:39 | 50.94120 | 4.79837 | 7366 ft | 279 kts | 144° |
| 2026-05-05 15:39 | 50.92398 | 4.81250 | 8049 ft | 281 kts | 158° |
| 2026-05-05 15:39 | 50.90560 | 4.82370 | 8739 ft | 284 kts | 162° |
| 2026-05-05 15:40 | 50.88609 | 4.82730 | 9414 ft | 286 kts | 188° |
| 2026-05-05 15:40 | 50.86745 | 4.81659 | 10082 ft | 288 kts | 215° |
| 2026-05-05 15:40 | 50.85368 | 4.79357 | 10648 ft | 294 kts | 241° |
| 2026-05-05 15:40 | 50.84449 | 4.76388 | 11016 ft | 308 kts | 246° |
| 2026-05-05 15:41 | 50.83587 | 4.73191 | 11321 ft | 323 kts | 247° |
| 2026-05-05 15:41 | 50.82675 | 4.69882 | 11786 ft | 332 kts | 246° |
| 2026-05-05 15:41 | 50.81698 | 4.66527 | 12329 ft | 338 kts | 245° |
| 2026-05-05 15:41 | 50.80708 | 4.63134 | 12903 ft | 342 kts | 245° |
| 2026-05-05 15:42 | 50.79719 | 4.59680 | 13483 ft | 346 kts | 246° |
| 2026-05-05 15:42 | 50.78736 | 4.56240 | 14054 ft | 350 kts | 246° |
| 2026-05-05 15:42 | 50.77711 | 4.52684 | 14640 ft | 353 kts | 245° |
| 2026-05-05 15:42 | 50.76698 | 4.49186 | 15188 ft | 356 kts | 245° |
| 2026-05-05 15:43 | 50.75665 | 4.45614 | 15742 ft | 359 kts | 245° |
| 2026-05-05 15:43 | 50.74623 | 4.42011 | 16281 ft | 362 kts | 245° |
| 2026-05-05 15:43 | 50.73572 | 4.38386 | 16813 ft | 365 kts | 245° |
| 2026-05-05 15:43 | 50.72510 | 4.34732 | 17335 ft | 368 kts | 244° |
| 2026-05-05 15:44 | 50.71101 | 4.31407 | 17835 ft | 370 kts | 229° |
| 2026-05-05 15:44 | 50.69350 | 4.28558 | 18310 ft | 373 kts | 218° |
| 2026-05-05 15:44 | 50.67149 | 4.26178 | 18803 ft | 376 kts | 212° |
| 2026-05-05 15:44 | 50.64897 | 4.24069 | 19275 ft | 379 kts | 211° |
| 2026-05-05 15:45 | 50.62566 | 4.22108 | 19732 ft | 381 kts | 203° |
| 2026-05-05 15:45 | 50.60077 | 4.20625 | 20186 ft | 384 kts | 199° |
| 2026-05-05 15:45 | 50.57526 | 4.19319 | 20626 ft | 387 kts | 198° |
| 2026-05-05 15:45 | 50.54982 | 4.17880 | 21060 ft | 390 kts | 202° |
| 2026-05-05 15:46 | 50.52472 | 4.16227 | 21486 ft | 392 kts | 203° |
| 2026-05-05 15:46 | 50.49991 | 4.14612 | 21904 ft | 395 kts | 202° |
| 2026-05-05 15:46 | 50.47418 | 4.13060 | 22318 ft | 398 kts | 201° |
| 2026-05-05 15:46 | 50.44821 | 4.11510 | 22723 ft | 400 kts | 201° |
| 2026-05-05 15:47 | 50.42222 | 4.09904 | 23124 ft | 403 kts | 202° |
| 2026-05-05 15:47 | 50.40493 | 4.08823 | 23384 ft | 404 kts | 202° |
| 2026-05-05 15:47 | 50.36973 | 4.06654 | 23900 ft | 408 kts | 201° |
| 2026-05-05 15:47 | 50.34320 | 4.05042 | 24278 ft | 410 kts | 201° |
| 2026-05-05 15:48 | 50.31658 | 4.03415 | 24651 ft | 413 kts | 201° |
| 2026-05-05 15:48 | 50.28976 | 4.01770 | 25018 ft | 415 kts | 201° |
| 2026-05-05 15:48 | 50.26278 | 4.00120 | 25364 ft | 417 kts | 201° |
| 2026-05-05 15:48 | 50.23564 | 3.98467 | 25727 ft | 420 kts | 201° |
| 2026-05-05 15:49 | 50.20836 | 3.96808 | 26072 ft | 422 kts | 201° |
| 2026-05-05 15:49 | 50.18090 | 3.95136 | 26409 ft | 424 kts | 201° |
| 2026-05-05 15:49 | 50.15330 | 3.93458 | 26744 ft | 427 kts | 201° |
| 2026-05-05 15:49 | 50.12559 | 3.91777 | 27071 ft | 429 kts | 201° |
| 2026-05-05 15:50 | 50.09765 | 3.90085 | 27395 ft | 431 kts | 201° |
| 2026-05-05 15:50 | 50.06963 | 3.88389 | 27709 ft | 433 kts | 201° |
| 2026-05-05 15:50 | 50.04145 | 3.86685 | 28027 ft | 436 kts | 201° |
| 2026-05-05 15:50 | 50.01313 | 3.84975 | 28328 ft | 438 kts | 201° |
| 2026-05-05 15:51 | 49.98466 | 3.83258 | 28630 ft | 440 kts | 201° |
| 2026-05-05 15:51 | 49.95610 | 3.81538 | 28925 ft | 442 kts | 201° |
| 2026-05-05 15:51 | 49.92735 | 3.79809 | 29219 ft | 444 kts | 201° |
| 2026-05-05 15:51 | 49.89849 | 3.78075 | 29504 ft | 446 kts | 201° |
| 2026-05-05 15:52 | 49.86944 | 3.76333 | 29790 ft | 448 kts | 201° |
| 2026-05-05 15:52 | 49.84039 | 3.74592 | 30184 ft | 447 kts | 201° |
| 2026-05-05 15:52 | 49.81146 | 3.72861 | 30569 ft | 446 kts | 201° |
| 2026-05-05 15:52 | 49.78254 | 3.71133 | 30935 ft | 445 kts | 201° |
| 2026-05-05 15:53 | 49.75371 | 3.69412 | 31290 ft | 444 kts | 201° |
| 2026-05-05 15:53 | 49.72491 | 3.67696 | 31640 ft | 443 kts | 201° |
| 2026-05-05 15:53 | 49.69649 | 3.66004 | 31978 ft | 443 kts | 201° |
| 2026-05-05 15:53 | 49.66781 | 3.64299 | 32310 ft | 442 kts | 201° |
| 2026-05-05 15:54 | 49.63907 | 3.62592 | 32643 ft | 442 kts | 201° |
| 2026-05-05 15:54 | 49.61036 | 3.60890 | 32944 ft | 441 kts | 201° |
| 2026-05-05 15:54 | 49.58182 | 3.59199 | 32979 ft | 438 kts | 201° |
| 2026-05-05 15:55 | 49.52534 | 3.55860 | 33002 ft | 433 kts | 201° |
| 2026-05-05 15:55 | 49.46916 | 3.52546 | 32995 ft | 432 kts | 201° |
| 2026-05-05 15:56 | 49.41288 | 3.49236 | 32997 ft | 433 kts | 201° |
| 2026-05-05 15:56 | 49.35666 | 3.45937 | 32999 ft | 432 kts | 201° |
| 2026-05-05 15:57 | 49.30034 | 3.42640 | 32998 ft | 433 kts | 201° |
| 2026-05-05 15:57 | 49.24409 | 3.39355 | 32997 ft | 433 kts | 201° |
| 2026-05-05 15:58 | 49.18812 | 3.36094 | 32998 ft | 433 kts | 201° |
| 2026-05-05 15:58 | 49.13176 | 3.32819 | 32997 ft | 433 kts | 201° |
| 2026-05-05 15:59 | 49.07550 | 3.29558 | 32997 ft | 433 kts | 201° |
| 2026-05-05 15:59 | 49.01919 | 3.26301 | 32998 ft | 433 kts | 201° |
| 2026-05-05 16:00 | 48.96246 | 3.23028 | 32997 ft | 433 kts | 201° |
| 2026-05-05 16:00 | 48.90614 | 3.19787 | 32999 ft | 433 kts | 201° |
| 2026-05-05 16:01 | 48.85020 | 3.16575 | 32999 ft | 433 kts | 201° |
| 2026-05-05 16:01 | 48.79382 | 3.13346 | 32999 ft | 433 kts | 201° |
| 2026-05-05 16:02 | 48.73745 | 3.10126 | 32999 ft | 433 kts | 201° |
| 2026-05-05 16:02 | 48.68111 | 3.06914 | 33000 ft | 433 kts | 201° |
| 2026-05-05 16:03 | 48.62467 | 3.03705 | 33001 ft | 433 kts | 201° |
| 2026-05-05 16:03 | 48.56829 | 3.00507 | 33001 ft | 433 kts | 201° |
| 2026-05-05 16:04 | 48.51198 | 2.97320 | 33000 ft | 432 kts | 201° |
| 2026-05-05 16:04 | 48.45357 | 2.95446 | 33018 ft | 434 kts | 178° |
| 2026-05-05 16:05 | 48.39358 | 2.96299 | 33012 ft | 433 kts | 174° |
| 2026-05-05 16:05 | 48.33347 | 2.96572 | 33007 ft | 433 kts | 183° |
| 2026-05-05 16:06 | 48.27323 | 2.96230 | 33012 ft | 433 kts | 180° |
| 2026-05-05 16:06 | 48.21302 | 2.96326 | 33010 ft | 433 kts | 181° |
| 2026-05-05 16:07 | 48.15272 | 2.96176 | 33007 ft | 433 kts | 180° |
| 2026-05-05 16:07 | 48.09291 | 2.96156 | 33010 ft | 433 kts | 180° |
| 2026-05-05 16:08 | 48.03262 | 2.96073 | 33010 ft | 433 kts | 181° |
| 2026-05-05 16:08 | 47.97198 | 2.96017 | 33011 ft | 433 kts | 180° |
| 2026-05-05 16:09 | 47.91205 | 2.95952 | 33011 ft | 433 kts | 181° |
| 2026-05-05 16:09 | 47.85180 | 2.95889 | 33011 ft | 433 kts | 180° |
| 2026-05-05 16:10 | 47.79150 | 2.95827 | 33012 ft | 433 kts | 180° |
| 2026-05-05 16:10 | 47.73116 | 2.95763 | 33009 ft | 433 kts | 180° |
| 2026-05-05 16:11 | 47.67086 | 2.95701 | 33009 ft | 433 kts | 180° |
| 2026-05-05 16:12 | 47.55032 | 2.95576 | 33009 ft | 433 kts | 180° |
| 2026-05-05 16:13 | 47.40989 | 2.95432 | 33009 ft | 433 kts | 180° |
| 2026-05-05 16:13 | 47.33951 | 2.95360 | 33009 ft | 433 kts | 180° |
| 2026-05-05 16:14 | 47.22909 | 2.95247 | 33010 ft | 433 kts | 180° |
| 2026-05-05 16:15 | 47.10923 | 2.95125 | 33011 ft | 433 kts | 180° |
| 2026-05-05 16:16 | 46.98912 | 2.95003 | 33011 ft | 433 kts | 180° |
| 2026-05-05 16:17 | 46.89882 | 2.94912 | 33011 ft | 433 kts | 180° |
| 2026-05-05 16:18 | 46.80852 | 2.94821 | 33010 ft | 432 kts | 180° |
| 2026-05-05 16:19 | 46.71816 | 2.94731 | 33010 ft | 433 kts | 180° |
| 2026-05-05 16:19 | 46.62853 | 2.94641 | 33011 ft | 433 kts | 180° |
| 2026-05-05 16:20 | 46.50796 | 2.94521 | 33012 ft | 433 kts | 180° |
| 2026-05-05 16:22 | 46.35712 | 2.94372 | 33009 ft | 434 kts | 180° |
| 2026-05-05 16:23 | 46.23673 | 2.94253 | 33009 ft | 434 kts | 180° |
| 2026-05-05 16:23 | 46.14598 | 2.94164 | 33010 ft | 435 kts | 180° |
| 2026-05-05 16:24 | 46.08544 | 2.94105 | 33009 ft | 434 kts | 180° |
| 2026-05-05 16:25 | 45.99497 | 2.94017 | 33006 ft | 434 kts | 180° |
| 2026-05-05 16:25 | 45.90447 | 2.93929 | 33004 ft | 435 kts | 180° |
| 2026-05-05 16:26 | 45.78333 | 2.93811 | 33007 ft | 436 kts | 180° |
| 2026-05-05 16:27 | 45.72265 | 2.93753 | 33006 ft | 436 kts | 180° |
| 2026-05-05 16:27 | 45.66204 | 2.93694 | 33005 ft | 436 kts | 180° |
| 2026-05-05 16:28 | 45.60140 | 2.93636 | 33006 ft | 436 kts | 180° |
| 2026-05-05 16:28 | 45.54072 | 2.93578 | 33004 ft | 435 kts | 180° |
| 2026-05-05 16:29 | 45.48045 | 2.93520 | 33007 ft | 436 kts | 180° |
| 2026-05-05 16:29 | 45.41961 | 2.93462 | 33007 ft | 436 kts | 180° |
| 2026-05-05 16:30 | 45.35876 | 2.93404 | 33008 ft | 437 kts | 180° |
| 2026-05-05 16:30 | 45.29778 | 2.93346 | 33009 ft | 438 kts | 180° |
| 2026-05-05 16:31 | 45.23691 | 2.93288 | 33009 ft | 437 kts | 180° |
| 2026-05-05 16:31 | 45.17525 | 2.93229 | 33009 ft | 452 kts | 180° |
| 2026-05-05 16:32 | 45.11136 | 2.93169 | 33013 ft | 461 kts | 180° |
| 2026-05-05 16:32 | 45.04699 | 2.93109 | 33009 ft | 463 kts | 180° |
| 2026-05-05 16:33 | 44.98247 | 2.93048 | 33010 ft | 463 kts | 180° |
| 2026-05-05 16:33 | 44.91801 | 2.92987 | 33009 ft | 463 kts | 180° |
| 2026-05-05 16:34 | 44.85362 | 2.92920 | 33011 ft | 463 kts | 182° |
| 2026-05-05 16:34 | 44.78931 | 2.92466 | 33009 ft | 463 kts | 182° |
| 2026-05-05 16:35 | 44.72502 | 2.92040 | 33009 ft | 464 kts | 184° |
| 2026-05-05 16:35 | 44.66117 | 2.91534 | 33010 ft | 464 kts | 183° |
| 2026-05-05 16:36 | 44.59711 | 2.91096 | 33011 ft | 463 kts | 183° |
| 2026-05-05 16:36 | 44.53294 | 2.90610 | 33009 ft | 461 kts | 183° |
| 2026-05-05 16:37 | 44.46901 | 2.90158 | 33006 ft | 460 kts | 183° |
| 2026-05-05 16:37 | 44.40505 | 2.89688 | 33008 ft | 460 kts | 183° |
| 2026-05-05 16:38 | 44.34110 | 2.89229 | 33007 ft | 460 kts | 183° |
| 2026-05-05 16:38 | 44.27699 | 2.88765 | 33009 ft | 462 kts | 183° |
| 2026-05-05 16:39 | 44.21276 | 2.88304 | 33008 ft | 462 kts | 183° |
| 2026-05-05 16:39 | 44.14850 | 2.87842 | 33008 ft | 462 kts | 183° |
| 2026-05-05 16:40 | 44.08426 | 2.87382 | 33010 ft | 461 kts | 183° |
| 2026-05-05 16:40 | 44.02029 | 2.86925 | 33010 ft | 460 kts | 183° |
| 2026-05-05 16:41 | 43.95639 | 2.86469 | 33011 ft | 460 kts | 183° |
| 2026-05-05 16:41 | 43.89254 | 2.86014 | 33010 ft | 459 kts | 183° |
| 2026-05-05 16:42 | 43.82892 | 2.85562 | 33008 ft | 458 kts | 183° |
| 2026-05-05 16:42 | 43.76502 | 2.85298 | 33008 ft | 460 kts | 179° |
| 2026-05-05 16:43 | 43.70082 | 2.85312 | 33009 ft | 462 kts | 180° |
| 2026-05-05 16:43 | 43.63654 | 2.85440 | 33010 ft | 463 kts | 179° |
| 2026-05-05 16:44 | 43.57221 | 2.85524 | 33006 ft | 461 kts | 180° |
| 2026-05-05 16:44 | 43.50825 | 2.85618 | 33010 ft | 458 kts | 179° |
| 2026-05-05 16:45 | 43.44436 | 2.85714 | 33008 ft | 459 kts | 180° |
| 2026-05-05 16:45 | 43.38046 | 2.85804 | 33008 ft | 457 kts | 179° |
| 2026-05-05 16:46 | 43.31695 | 2.85899 | 33008 ft | 456 kts | 180° |
| 2026-05-05 16:46 | 43.25353 | 2.85990 | 33008 ft | 456 kts | 179° |
| 2026-05-05 16:47 | 43.19014 | 2.86083 | 33009 ft | 456 kts | 180° |
| 2026-05-05 16:47 | 43.12667 | 2.86174 | 33008 ft | 456 kts | 179° |
| 2026-05-05 16:48 | 43.06358 | 2.86265 | 33009 ft | 457 kts | 180° |
| 2026-05-05 16:48 | 43.00004 | 2.86356 | 33008 ft | 456 kts | 179° |
| 2026-05-05 16:49 | 42.96870 | 2.86402 | 32978 ft | 444 kts | 180° |
| 2026-05-05 16:49 | 42.93814 | 2.86446 | 32674 ft | 436 kts | 180° |
| 2026-05-05 16:49 | 42.90769 | 2.86489 | 32059 ft | 436 kts | 180° |
| 2026-05-05 16:49 | 42.87742 | 2.86532 | 31449 ft | 436 kts | 180° |
| 2026-05-05 16:50 | 42.84705 | 2.86576 | 30827 ft | 435 kts | 180° |
| 2026-05-05 16:50 | 42.81681 | 2.86619 | 30198 ft | 434 kts | 180° |
| 2026-05-05 16:50 | 42.78657 | 2.86662 | 29571 ft | 433 kts | 180° |
| 2026-05-05 16:50 | 42.75646 | 2.86698 | 28946 ft | 432 kts | 181° |
| 2026-05-05 16:51 | 42.72660 | 2.86403 | 28326 ft | 430 kts | 185° |
| 2026-05-05 16:51 | 42.69686 | 2.86081 | 27705 ft | 428 kts | 185° |
| 2026-05-05 16:51 | 42.66723 | 2.85751 | 27084 ft | 426 kts | 185° |
| 2026-05-05 16:51 | 42.63774 | 2.85395 | 26479 ft | 424 kts | 185° |
| 2026-05-05 16:52 | 42.60843 | 2.85039 | 25869 ft | 422 kts | 185° |
| 2026-05-05 16:52 | 42.57945 | 2.84703 | 25261 ft | 412 kts | 185° |
| 2026-05-05 16:52 | 42.55092 | 2.84376 | 24677 ft | 410 kts | 185° |
| 2026-05-05 16:52 | 42.52294 | 2.84049 | 24078 ft | 392 kts | 185° |
| 2026-05-05 16:53 | 42.49639 | 2.83735 | 23534 ft | 376 kts | 185° |
| 2026-05-05 16:53 | 42.47027 | 2.83430 | 23010 ft | 376 kts | 185° |
| 2026-05-05 16:53 | 42.44428 | 2.83002 | 22461 ft | 376 kts | 191° |
| 2026-05-05 16:53 | 42.41852 | 2.82367 | 21922 ft | 376 kts | 190° |
| 2026-05-05 16:54 | 42.39273 | 2.81774 | 21413 ft | 375 kts | 190° |
| 2026-05-05 16:54 | 42.36746 | 2.81159 | 20929 ft | 373 kts | 191° |
| 2026-05-05 16:54 | 42.34201 | 2.80516 | 20426 ft | 371 kts | 191° |
| 2026-05-05 16:54 | 42.31671 | 2.79887 | 19942 ft | 369 kts | 191° |
| 2026-05-05 16:55 | 42.29145 | 2.79273 | 19453 ft | 368 kts | 190° |
| 2026-05-05 16:55 | 42.26632 | 2.78661 | 18954 ft | 366 kts | 191° |
| 2026-05-05 16:55 | 42.24135 | 2.78047 | 18485 ft | 364 kts | 191° |
| 2026-05-05 16:55 | 42.21652 | 2.77436 | 17990 ft | 361 kts | 191° |
| 2026-05-05 16:56 | 42.19184 | 2.76833 | 17515 ft | 359 kts | 191° |
| 2026-05-05 16:56 | 42.16735 | 2.76235 | 17039 ft | 357 kts | 191° |
| 2026-05-05 16:56 | 42.14298 | 2.75639 | 16632 ft | 353 kts | 191° |
| 2026-05-05 16:56 | 42.11894 | 2.75052 | 16177 ft | 350 kts | 191° |
| 2026-05-05 16:57 | 42.09503 | 2.74468 | 15721 ft | 348 kts | 191° |
| 2026-05-05 16:57 | 42.07122 | 2.73888 | 15256 ft | 346 kts | 191° |
| 2026-05-05 16:57 | 42.04760 | 2.73313 | 14798 ft | 344 kts | 191° |
| 2026-05-05 16:57 | 42.02408 | 2.72740 | 14334 ft | 342 kts | 191° |
| 2026-05-05 16:58 | 42.00076 | 2.72173 | 13888 ft | 340 kts | 191° |
| 2026-05-05 16:58 | 41.97758 | 2.71610 | 13434 ft | 338 kts | 191° |
| 2026-05-05 16:58 | 41.95453 | 2.71050 | 12989 ft | 336 kts | 191° |
| 2026-05-05 16:58 | 41.93162 | 2.70494 | 12547 ft | 333 kts | 191° |
| 2026-05-05 16:59 | 41.90882 | 2.69941 | 12100 ft | 331 kts | 191° |
| 2026-05-05 16:59 | 41.89384 | 2.69578 | 11809 ft | 330 kts | 191° |
| 2026-05-05 16:59 | 41.87127 | 2.69031 | 11370 ft | 328 kts | 191° |
| 2026-05-05 16:59 | 41.84892 | 2.68490 | 10934 ft | 326 kts | 191° |
| 2026-05-05 17:00 | 41.82673 | 2.67953 | 10505 ft | 323 kts | 191° |
| 2026-05-05 17:00 | 41.80460 | 2.67419 | 10076 ft | 321 kts | 191° |
| 2026-05-05 17:00 | 41.78284 | 2.66894 | 9814 ft | 314 kts | 190° |
| 2026-05-05 17:00 | 41.76154 | 2.66383 | 9544 ft | 305 kts | 190° |
| 2026-05-05 17:01 | 41.74158 | 2.65904 | 9289 ft | 284 kts | 191° |
| 2026-05-05 17:01 | 41.72223 | 2.65440 | 9057 ft | 281 kts | 191° |
| 2026-05-05 17:01 | 41.70308 | 2.64980 | 8821 ft | 278 kts | 190° |
| 2026-05-05 17:01 | 41.68414 | 2.64527 | 8601 ft | 276 kts | 191° |
| 2026-05-05 17:02 | 41.66529 | 2.64075 | 8374 ft | 274 kts | 191° |
| 2026-05-05 17:02 | 41.64658 | 2.63600 | 8148 ft | 273 kts | 196° |
| 2026-05-05 17:02 | 41.63015 | 2.62405 | 7921 ft | 271 kts | 219° |
| 2026-05-05 17:02 | 41.61619 | 2.60729 | 7657 ft | 270 kts | 225° |
| 2026-05-05 17:03 | 41.60276 | 2.58979 | 7395 ft | 269 kts | 224° |
| 2026-05-05 17:03 | 41.58897 | 2.57300 | 7136 ft | 268 kts | 221° |
| 2026-05-05 17:03 | 41.57501 | 2.55660 | 6881 ft | 267 kts | 221° |
| 2026-05-05 17:03 | 41.56117 | 2.54013 | 6625 ft | 265 kts | 222° |
| 2026-05-05 17:04 | 41.54749 | 2.52367 | 6371 ft | 264 kts | 222° |
| 2026-05-05 17:04 | 41.53385 | 2.50729 | 6120 ft | 263 kts | 222° |
| 2026-05-05 17:04 | 41.52024 | 2.49100 | 5878 ft | 262 kts | 222° |
| 2026-05-05 17:04 | 41.50666 | 2.47478 | 5619 ft | 261 kts | 222° |
| 2026-05-05 17:05 | 41.49315 | 2.45863 | 5367 ft | 260 kts | 222° |
| 2026-05-05 17:05 | 41.47983 | 2.44272 | 5127 ft | 259 kts | 222° |
| 2026-05-05 17:05 | 41.46641 | 2.42669 | 4877 ft | 258 kts | 222° |
| 2026-05-05 17:05 | 41.45303 | 2.41073 | 4622 ft | 257 kts | 222° |
| 2026-05-05 17:06 | 41.43971 | 2.39484 | 4383 ft | 257 kts | 222° |
| 2026-05-05 17:06 | 41.42644 | 2.37902 | 4142 ft | 256 kts | 222° |
| 2026-05-05 17:06 | 41.41321 | 2.36325 | 3896 ft | 255 kts | 222° |
| 2026-05-05 17:06 | 41.40003 | 2.34757 | 3654 ft | 254 kts | 222° |
| 2026-05-05 17:07 | 41.38700 | 2.33177 | 3412 ft | 253 kts | 227° |
| 2026-05-05 17:07 | 41.37685 | 2.31290 | 3177 ft | 251 kts | 242° |
| 2026-05-05 17:07 | 41.36944 | 2.29233 | 2913 ft | 239 kts | 247° |
| 2026-05-05 17:07 | 41.36319 | 2.27262 | 2737 ft | 220 kts | 247° |
| 2026-05-05 17:08 | 41.35732 | 2.25489 | 2523 ft | 200 kts | 246° |
| 2026-05-05 17:08 | 41.35181 | 2.23872 | 2387 ft | 182 kts | 245° |
| 2026-05-05 17:08 | 41.34681 | 2.22418 | 2393 ft | 168 kts | 246° |
| 2026-05-05 17:08 | 41.34199 | 2.21011 | 2273 ft | 164 kts | 245° |
| 2026-05-05 17:09 | 41.33735 | 2.19664 | 1873 ft | 155 kts | 246° |
| 2026-05-05 17:09 | 41.33322 | 2.18387 | 1472 ft | 147 kts | 247° |
| 2026-05-05 17:09 | 41.32924 | 2.17164 | 1190 ft | 141 kts | 246° |
| 2026-05-05 17:09 | 41.32532 | 2.15988 | 931 ft | 138 kts | 245° |
| 2026-05-05 17:10 | 41.32136 | 2.14866 | 774 ft | 135 kts | 244° |
| 2026-05-05 17:10 | 41.31722 | 2.13744 | 622 ft | 136 kts | 244° |
| 2026-05-05 17:10 | 41.31330 | 2.12617 | 458 ft | 136 kts | 246° |
| 2026-05-05 17:10 | 41.31000 | 2.11621 | 269 ft | 135 kts | 246° |
| 2026-05-05 17:11 | 41.30619 | 2.10500 | 96 ft | 131 kts | 245° |
| 2026-05-05 17:11 | 41.30264 | 2.09464 | 18 ft | 105 kts | 245° |
| 2026-05-05 17:11 | 41.30048 | 2.08833 | 20 ft | 43 kts | 246° |
| 2026-05-05 17:11 | 41.29963 | 2.08592 | 21 ft | 26 kts | 246° |
| 2026-05-05 17:12 | 41.29925 | 2.08358 | 20 ft | 27 kts | 268° |
| 2026-05-05 17:12 | 41.29939 | 2.08129 | 19 ft | 14 kts | 275° |
| 2026-05-05 17:12 | 41.29985 | 2.08024 | 19 ft | 14 kts | 329° |
| 2026-05-05 17:12 | 41.30076 | 2.07969 | 20 ft | 15 kts | 336° |
| 2026-05-05 17:13 | 41.30158 | 2.07888 | 20 ft | 15 kts | 331° |
| 2026-05-05 17:13 | 41.30224 | 2.07813 | 19 ft | 9 kts | 287° |
| 2026-05-05 17:13 | 41.30227 | 2.07783 | 21 ft | 0 kts | 277° |